Hlavní strana
METAR-TAF:

METAR-TAF

Letiště :

Mezinárodní letiště Dubaj

Dubaj, Spojené arabské emiráty

zeměpisná šířka: 25-15-10N, zeměpisná délka: 055-21-52E, výška: 8 m

Aktuální stav počasí

Zpráva byla vytvořena před 1 hodinou a 5 minutami, v 20:00 UTC
Jihozápadní vítr 4 kt, proměnlivý mezi jižním a západním
Teplota 35°C
Vlhkost vzduchu 56%
Tlak 996 hPa
Viditelnost 10 km a více
Žádná oblačnost pod 1500 m, nevyskytují se cumulonimby.

METAR: OMDB 172000Z 23004KT 180V280 CAVOK 35/25 Q0996 NOSIG

Čas: 01:05 (21:05 UTC)

Předpověď počasí

Zpráva byla vytvořena před 4 hodinami a 15 minutami, v 16:50 UTC
Předpověď platná od 17 v 18 UTC do 19 v 00 UTC
Jižní vítr 7 kt
Viditelnost: 8000 m
Pravděpodobnost 30%
od 18 v 01 UTC do 18 v 04 UTC
Viditelnost: 4000 m
zákal
Změna
od 18 v 06 UTC do 18 v 08 UTC
Západní vítr 12 kt
Změna
od 18 v 16 UTC do 18 v 18 UTC
Jižní vítr 5 kt

TAF: OMDB 171650Z 1718/1900 19007KT 8000 NSC PROB30 1801/1804 4000 HZ BECMG 1806/1808 28012KT BECMG 1816/1818 18005KT

Stav a předpovědi počasí z více než 4 000 letišť (zprávy METAR a TAF).

Červené a žluté tečky na mapě představují dostupné meteorologické stanice.

Když kurzor umístíte na tečku, zobrazí se název stanice.

Pak kliknutím zobrazíte stav a předpověď počasí.

Chcete-li změnit mapu, kliknutím na zelené tlačítko se znaménkem +mapu přiblížíte, kliknutím na zelené tlačítko se znaménkem – mapu oddálíte a kliknutím na zelené šipky přejdete na sousední mapy.


METAR-TAF: